sensor_id;sensor_type;location;lat;lon;timestamp;pressure;altitude;pressure_sealevel;temperature;humidity
36222;BME280;22266;52.340;4.962;2022-08-19T00:01:50;101362.09;;;20.09;71.57
36222;BME280;22266;52.340;4.962;2022-08-19T00:04:22;101369.25;;;20.10;71.54
36222;BME280;22266;52.340;4.962;2022-08-19T00:06:48;101361.06;;;20.10;71.59
36222;BME280;22266;52.340;4.962;2022-08-19T00:09:16;101352.84;;;20.10;71.71
36222;BME280;22266;52.340;4.962;2022-08-19T00:11:43;101360.19;;;20.09;71.74
36222;BME280;22266;52.340;4.962;2022-08-19T00:14:12;101359.38;;;20.09;72.03
36222;BME280;22266;52.340;4.962;2022-08-19T00:16:40;101361.28;;;20.08;71.85
36222;BME280;22266;52.340;4.962;2022-08-19T00:19:08;101355.25;;;20.06;71.80
36222;BME280;22266;52.340;4.962;2022-08-19T00:21:35;101353.81;;;20.04;71.92
36222;BME280;22266;52.340;4.962;2022-08-19T00:24:10;101352.16;;;20.03;71.73
36222;BME280;22266;52.340;4.962;2022-08-19T00:26:37;101352.66;;;19.99;71.67
36222;BME280;22266;52.340;4.962;2022-08-19T00:29:11;101345.28;;;20.00;71.81
36222;BME280;22266;52.340;4.962;2022-08-19T00:31:38;101340.06;;;19.98;71.73
36222;BME280;22266;52.340;4.962;2022-08-19T00:34:05;101340.28;;;19.97;71.82
36222;BME280;22266;52.340;4.962;2022-08-19T00:36:31;101337.81;;;19.95;71.59
36222;BME280;22266;52.340;4.962;2022-08-19T00:38:59;101342.19;;;19.96;71.89
36222;BME280;22266;52.340;4.962;2022-08-19T00:41:26;101352.09;;;19.97;71.77
36222;BME280;22266;52.340;4.962;2022-08-19T00:46:35;101340.28;;;19.97;71.67
36222;BME280;22266;52.340;4.962;2022-08-19T00:49:09;101344.09;;;19.96;71.76
36222;BME280;22266;52.340;4.962;2022-08-19T00:51:36;101342.47;;;19.95;71.79
36222;BME280;22266;52.340;4.962;2022-08-19T00:54:03;101343.75;;;19.92;71.79
36222;BME280;22266;52.340;4.962;2022-08-19T00:56:30;101353.88;;;19.92;71.84
36222;BME280;22266;52.340;4.962;2022-08-19T00:58:58;101351.13;;;19.92;71.92
36222;BME280;22266;52.340;4.962;2022-08-19T01:01:25;101347.22;;;19.88;71.74
36222;BME280;22266;52.340;4.962;2022-08-19T01:03:52;101349.97;;;19.88;71.85
36222;BME280;22266;52.340;4.962;2022-08-19T01:06:24;101352.34;;;19.84;71.79
36222;BME280;22266;52.340;4.962;2022-08-19T01:08:51;101358.91;;;19.83;71.90
36222;BME280;22266;52.340;4.962;2022-08-19T01:11:17;101363.53;;;19.83;71.85
36222;BME280;22266;52.340;4.962;2022-08-19T01:13:45;101366.25;;;19.83;71.79
36222;BME280;22266;52.340;4.962;2022-08-19T01:16:16;101357.47;;;19.81;71.83
36222;BME280;22266;52.340;4.962;2022-08-19T01:18:45;101356.63;;;19.80;71.99
36222;BME280;22266;52.340;4.962;2022-08-19T01:21:22;101358.56;;;19.80;71.87
36222;BME280;22266;52.340;4.962;2022-08-19T01:23:52;101353.56;;;19.76;72.05
36222;BME280;22266;52.340;4.962;2022-08-19T01:26:23;101358.19;;;19.76;72.04
36222;BME280;22266;52.340;4.962;2022-08-19T01:28:54;101365.81;;;19.74;72.18
36222;BME280;22266;52.340;4.962;2022-08-19T01:31:27;101372.59;;;19.71;72.29
36222;BME280;22266;52.340;4.962;2022-08-19T01:33:59;101369.28;;;19.69;72.09
36222;BME280;22266;52.340;4.962;2022-08-19T01:36:33;101344.09;;;19.67;72.20
36222;BME280;22266;52.340;4.962;2022-08-19T01:39:02;101355.84;;;19.68;72.26
36222;BME280;22266;52.340;4.962;2022-08-19T01:41:30;101360.50;;;19.67;72.33
36222;BME280;22266;52.340;4.962;2022-08-19T01:43:56;101362.13;;;19.68;72.31
36222;BME280;22266;52.340;4.962;2022-08-19T01:46:43;101364.03;;;19.68;72.27
36222;BME280;22266;52.340;4.962;2022-08-19T01:49:10;101365.13;;;19.67;72.21
36222;BME280;22266;52.340;4.962;2022-08-19T01:51:37;101368.13;;;19.65;72.32
36222;BME280;22266;52.340;4.962;2022-08-19T01:54:07;101374.06;;;19.62;72.27
36222;BME280;22266;52.340;4.962;2022-08-19T01:56:34;101378.31;;;19.58;72.27
36222;BME280;22266;52.340;4.962;2022-08-19T01:59:14;101376.03;;;19.55;72.35
36222;BME280;22266;52.340;4.962;2022-08-19T02:01:42;101367.50;;;19.51;72.39
36222;BME280;22266;52.340;4.962;2022-08-19T02:04:09;101373.22;;;19.50;72.37
36222;BME280;22266;52.340;4.962;2022-08-19T02:06:36;101372.13;;;19.51;72.35
36222;BME280;22266;52.340;4.962;2022-08-19T02:09:04;101365.03;;;19.50;72.28
36222;BME280;22266;52.340;4.962;2022-08-19T02:11:34;101373.22;;;19.50;72.35
36222;BME280;22266;52.340;4.962;2022-08-19T02:14:05;101373.44;;;19.48;72.50
36222;BME280;22266;52.340;4.962;2022-08-19T02:16:33;101370.13;;;19.46;72.44
36222;BME280;22266;52.340;4.962;2022-08-19T02:18:59;101370.97;;;19.47;72.39
36222;BME280;22266;52.340;4.962;2022-08-19T02:21:29;101362.75;;;19.47;72.92
36222;BME280;22266;52.340;4.962;2022-08-19T02:23:56;101354.56;;;19.47;72.76
36222;BME280;22266;52.340;4.962;2022-08-19T02:26:23;101355.41;;;19.47;72.65
36222;BME280;22266;52.340;4.962;2022-08-19T02:28:50;101358.72;;;19.49;72.66
36222;BME280;22266;52.340;4.962;2022-08-19T02:31:19;101360.63;;;19.49;72.68
36222;BME280;22266;52.340;4.962;2022-08-19T02:33:47;101357.06;;;19.48;72.59
36222;BME280;22266;52.340;4.962;2022-08-19T02:36:15;101355.41;;;19.47;72.51
36222;BME280;22266;52.340;4.962;2022-08-19T02:38:46;101351.28;;;19.45;72.42
36222;BME280;22266;52.340;4.962;2022-08-19T02:41:26;101361.00;;;19.41;72.65
36222;BME280;22266;52.340;4.962;2022-08-19T02:43:54;101355.78;;;19.39;72.43
36222;BME280;22266;52.340;4.962;2022-08-19T02:46:41;101353.50;;;19.36;72.39
36222;BME280;22266;52.340;4.962;2022-08-19T02:49:09;101362.78;;;19.35;72.43
36222;BME280;22266;52.340;4.962;2022-08-19T02:51:39;101360.06;;;19.35;72.43
36222;BME280;22266;52.340;4.962;2022-08-19T02:54:07;101362.78;;;19.35;72.50
36222;BME280;22266;52.340;4.962;2022-08-19T02:56:40;101349.97;;;19.36;72.53
36222;BME280;22266;52.340;4.962;2022-08-19T02:59:07;101345.56;;;19.35;72.63
36222;BME280;22266;52.340;4.962;2022-08-19T03:01:36;101344.50;;;19.36;72.50
36222;BME280;22266;52.340;4.962;2022-08-19T03:04:05;101337.13;;;19.36;72.48
36222;BME280;22266;52.340;4.962;2022-08-19T03:06:36;101334.66;;;19.35;72.43
36222;BME280;22266;52.340;4.962;2022-08-19T03:09:03;101337.63;;;19.33;72.53
36222;BME280;22266;52.340;4.962;2022-08-19T03:11:31;101340.59;;;19.32;72.34
36222;BME280;22266;52.340;4.962;2022-08-19T03:13:59;101333.47;;;19.31;72.55
36222;BME280;22266;52.340;4.962;2022-08-19T03:16:27;101331.56;;;19.31;72.57
36222;BME280;22266;52.340;4.962;2022-08-19T03:18:58;101328.03;;;19.31;72.50
36222;BME280;22266;52.340;4.962;2022-08-19T03:21:32;101328.84;;;19.31;72.50
36222;BME280;22266;52.340;4.962;2022-08-19T03:24:02;101326.38;;;19.30;72.31
36222;BME280;22266;52.340;4.962;2022-08-19T03:26:30;101323.03;;;19.27;72.28
36222;BME280;22266;52.340;4.962;2022-08-19T03:28:56;101322.47;;;19.25;72.56
36222;BME280;22266;52.340;4.962;2022-08-19T03:31:26;101327.31;;;19.23;72.23
36222;BME280;22266;52.340;4.962;2022-08-19T03:34:16;101334.94;;;19.21;72.48
36222;BME280;22266;52.340;4.962;2022-08-19T03:36:44;101319.84;;;19.19;72.50
36222;BME280;22266;52.340;4.962;2022-08-19T03:39:11;101318.19;;;19.18;72.58
36222;BME280;22266;52.340;4.962;2022-08-19T03:41:40;101318.44;;;19.16;72.94
36222;BME280;22266;52.340;4.962;2022-08-19T03:44:20;101314.88;;;19.16;72.56
36222;BME280;22266;52.340;4.962;2022-08-19T03:46:52;101313.22;;;19.15;72.50
36222;BME280;22266;52.340;4.962;2022-08-19T03:49:22;101315.13;;;19.14;72.93
36222;BME280;22266;52.340;4.962;2022-08-19T03:51:56;101321.66;;;19.13;72.58
36222;BME280;22266;52.340;4.962;2022-08-19T03:54:24;101317.28;;;19.12;72.58
36222;BME280;22266;52.340;4.962;2022-08-19T03:56:52;101326.50;;;19.11;72.73
36222;BME280;22266;52.340;4.962;2022-08-19T03:59:29;101317.50;;;19.11;72.73
36222;BME280;22266;52.340;4.962;2022-08-19T04:01:59;101318.31;;;19.11;72.88
36222;BME280;22266;52.340;4.962;2022-08-19T04:04:27;101321.28;;;19.10;72.58
36222;BME280;22266;52.340;4.962;2022-08-19T04:06:55;101324.03;;;19.10;73.03
36222;BME280;22266;52.340;4.962;2022-08-19T04:09:23;101320.47;;;19.09;72.93
36222;BME280;22266;52.340;4.962;2022-08-19T04:11:52;101323.78;;;19.11;72.79
36222;BME280;22266;52.340;4.962;2022-08-19T04:14:24;101316.66;;;19.10;72.87
36222;BME280;22266;52.340;4.962;2022-08-19T04:16:52;101320.47;;;19.09;73.08
36222;BME280;22266;52.340;4.962;2022-08-19T04:19:19;101325.94;;;19.09;72.88
36222;BME280;22266;52.340;4.962;2022-08-19T04:21:50;101325.94;;;19.09;72.87
36222;BME280;22266;52.340;4.962;2022-08-19T04:24:18;101325.94;;;19.09;73.03
36222;BME280;22266;52.340;4.962;2022-08-19T04:26:46;101322.13;;;19.10;73.08
36222;BME280;22266;52.340;4.962;2022-08-19T04:29:16;101324.84;;;19.10;73.22
36222;BME280;22266;52.340;4.962;2022-08-19T04:31:44;101322.94;;;19.11;73.11
36222;BME280;22266;52.340;4.962;2022-08-19T04:34:13;101330.91;;;19.12;73.16
36222;BME280;22266;52.340;4.962;2022-08-19T04:36:41;101320.22;;;19.11;72.93
36222;BME280;22266;52.340;4.962;2022-08-19T04:39:11;101326.50;;;19.11;73.20
36222;BME280;22266;52.340;4.962;2022-08-19T04:41:38;101324.59;;;19.12;73.20
36222;BME280;22266;52.340;4.962;2022-08-19T04:44:23;101326.75;;;19.10;73.08
36222;BME280;22266;52.340;4.962;2022-08-19T04:46:50;101321.53;;;19.08;73.23
36222;BME280;22266;52.340;4.962;2022-08-19T04:49:20;101320.69;;;19.08;73.44
36222;BME280;22266;52.340;4.962;2022-08-19T04:51:49;101326.16;;;19.08;73.52
36222;BME280;22266;52.340;4.962;2022-08-19T04:54:17;101329.72;;;19.08;73.51
36222;BME280;22266;52.340;4.962;2022-08-19T04:57:05;101329.72;;;19.08;73.80
36222;BME280;22266;52.340;4.962;2022-08-19T04:59:34;101335.19;;;19.08;73.62
36222;BME280;22266;52.340;4.962;2022-08-19T05:02:01;101337.06;;;19.08;73.76
36222;BME280;22266;52.340;4.962;2022-08-19T05:04:27;101346.56;;;19.05;73.92
36222;BME280;22266;52.340;4.962;2022-08-19T05:06:57;101338.38;;;19.05;73.83
36222;BME280;22266;52.340;4.962;2022-08-19T05:09:27;101348.47;;;19.05;74.04
36222;BME280;22266;52.340;4.962;2022-08-19T05:12:14;101344.91;;;19.04;74.13
36222;BME280;22266;52.340;4.962;2022-08-19T05:14:41;101349.31;;;19.05;74.13
36222;BME280;22266;52.340;4.962;2022-08-19T05:17:08;101354.97;;;19.03;74.11
36222;BME280;22266;52.340;4.962;2022-08-19T05:19:53;101355.59;;;19.06;74.29
36222;BME280;22266;52.340;4.962;2022-08-19T05:22:38;101358.31;;;19.06;74.23
36222;BME280;22266;52.340;4.962;2022-08-19T05:25:08;101359.75;;;19.08;74.41
36222;BME280;22266;52.340;4.962;2022-08-19T05:27:39;101364.13;;;19.09;74.19
36222;BME280;22266;52.340;4.962;2022-08-19T05:30:07;101356.75;;;19.10;74.02
36222;BME280;22266;52.340;4.962;2022-08-19T05:32:33;101358.19;;;19.12;74.36
36222;BME280;22266;52.340;4.962;2022-08-19T05:35:00;101347.28;;;19.12;74.39
36222;BME280;22266;52.340;4.962;2022-08-19T05:37:26;101356.88;;;19.15;74.24
36222;BME280;22266;52.340;4.962;2022-08-19T05:39:54;101340.50;;;19.15;74.40
36222;BME280;22266;52.340;4.962;2022-08-19T05:42:21;101344.66;;;19.17;74.53
36222;BME280;22266;52.340;4.962;2022-08-19T05:44:50;101343.34;;;19.20;74.36
36222;BME280;22266;52.340;4.962;2022-08-19T05:47:17;101342.28;;;19.21;74.78
36222;BME280;22266;52.340;4.962;2022-08-19T05:49:46;101343.69;;;19.23;74.25
36222;BME280;22266;52.340;4.962;2022-08-19T05:52:14;101348.31;;;19.23;74.33
36222;BME280;22266;52.340;4.962;2022-08-19T05:54:45;101344.75;;;19.22;74.24
36222;BME280;22266;52.340;4.962;2022-08-19T05:57:17;101350.69;;;19.19;74.59
36222;BME280;22266;52.340;4.962;2022-08-19T05:59:44;101349.66;;;19.20;74.84
36222;BME280;22266;52.340;4.962;2022-08-19T06:02:25;101343.47;;;19.25;74.50
36222;BME280;22266;52.340;4.962;2022-08-19T06:04:52;101342.66;;;19.24;74.43
36222;BME280;22266;52.340;4.962;2022-08-19T06:07:18;101344.50;;;19.24;74.72
36222;BME280;22266;52.340;4.962;2022-08-19T06:09:45;101344.88;;;19.27;74.87
36222;BME280;22266;52.340;4.962;2022-08-19T06:12:26;101341.09;;;19.29;74.81
36222;BME280;22266;52.340;4.962;2022-08-19T06:14:55;101347.13;;;19.31;74.82
36222;BME280;22266;52.340;4.962;2022-08-19T06:17:27;101343.56;;;19.30;74.98
36222;BME280;22266;52.340;4.962;2022-08-19T06:19:56;101344.41;;;19.31;74.99
36222;BME280;22266;52.340;4.962;2022-08-19T06:22:23;101332.41;;;19.32;75.07
36222;BME280;22266;52.340;4.962;2022-08-19T06:24:49;101333.84;;;19.34;74.98
36222;BME280;22266;52.340;4.962;2022-08-19T06:27:19;101344.41;;;19.31;75.16
36222;BME280;22266;52.340;4.962;2022-08-19T06:29:46;101341.09;;;19.29;75.20
36222;BME280;22266;52.340;4.962;2022-08-19T06:32:15;101340.84;;;19.30;75.44
36222;BME280;22266;52.340;4.962;2022-08-19T06:34:42;101341.31;;;19.27;75.43
36222;BME280;22266;52.340;4.962;2022-08-19T06:37:08;101345.13;;;19.26;75.69
36222;BME280;22266;52.340;4.962;2022-08-19T06:39:38;101345.03;;;19.21;76.06
36222;BME280;22266;52.340;4.962;2022-08-19T06:42:07;101344.75;;;19.22;76.44
36222;BME280;22266;52.340;4.962;2022-08-19T06:44:39;101341.41;;;19.32;76.03
36222;BME280;22266;52.340;4.962;2022-08-19T06:47:10;101352.34;;;19.32;75.76
36222;BME280;22266;52.340;4.962;2022-08-19T06:49:41;101348.56;;;19.33;75.76
36222;BME280;22266;52.340;4.962;2022-08-19T06:52:08;101345.56;;;19.35;75.92
36222;BME280;22266;52.340;4.962;2022-08-19T06:54:39;101349.47;;;19.39;75.92
36222;BME280;22266;52.340;4.962;2022-08-19T06:57:23;101347.09;;;19.42;75.72
36222;BME280;22266;52.340;4.962;2022-08-19T06:59:49;101353.75;;;19.46;75.86
36222;BME280;22266;52.340;4.962;2022-08-19T07:02:16;101354.31;;;19.48;75.86
36222;BME280;22266;52.340;4.962;2022-08-19T07:04:44;101352.19;;;19.50;75.75
36222;BME280;22266;52.340;4.962;2022-08-19T07:07:13;101359.09;;;19.53;75.67
36222;BME280;22266;52.340;4.962;2022-08-19T07:09:47;101364.03;;;19.56;75.94
36222;BME280;22266;52.340;4.962;2022-08-19T07:12:28;101360.00;;;19.59;75.83
36222;BME280;22266;52.340;4.962;2022-08-19T07:14:57;101366.69;;;19.63;75.91
36222;BME280;22266;52.340;4.962;2022-08-19T07:17:25;101365.38;;;19.65;75.89
36222;BME280;22266;52.340;4.962;2022-08-19T07:19:52;101360.38;;;19.62;76.06
36222;BME280;22266;52.340;4.962;2022-08-19T07:22:20;101364.31;;;19.66;76.27
36222;BME280;22266;52.340;4.962;2022-08-19T07:24:50;101365.47;;;19.70;76.18
36222;BME280;22266;52.340;4.962;2022-08-19T07:27:17;101359.88;;;19.77;76.27
36222;BME280;22266;52.340;4.962;2022-08-19T07:29:52;101361.06;;;19.81;76.01
36222;BME280;22266;52.340;4.962;2022-08-19T07:32:22;101349.63;;;19.84;75.98
36222;BME280;22266;52.340;4.962;2022-08-19T07:34:49;101352.13;;;19.86;75.96
36222;BME280;22266;52.340;4.962;2022-08-19T07:37:15;101350.56;;;19.90;76.06
36222;BME280;22266;52.340;4.962;2022-08-19T07:39:42;101360.28;;;19.97;75.88
36222;BME280;22266;52.340;4.962;2022-08-19T07:42:10;101367.50;;;20.04;75.80
36222;BME280;22266;52.340;4.962;2022-08-19T07:44:39;101357.97;;;20.06;75.85
36222;BME280;22266;52.340;4.962;2022-08-19T07:47:07;101355.06;;;20.13;75.95
36222;BME280;22266;52.340;4.962;2022-08-19T07:49:54;101364.56;;;20.22;75.69
36222;BME280;22266;52.340;4.962;2022-08-19T07:52:20;101371.75;;;20.28;75.64
36222;BME280;22266;52.340;4.962;2022-08-19T07:54:46;101369.44;;;20.37;75.58
36222;BME280;22266;52.340;4.962;2022-08-19T07:57:13;101362.66;;;20.39;75.33
36222;BME280;22266;52.340;4.962;2022-08-19T07:59:39;101365.16;;;20.41;75.36
36222;BME280;22266;52.340;4.962;2022-08-19T08:02:08;101364.31;;;20.40;75.59
36222;BME280;22266;52.340;4.962;2022-08-19T08:04:34;101377.75;;;20.42;75.35
36222;BME280;22266;52.340;4.962;2022-08-19T08:07:19;101371.13;;;20.38;75.48
36222;BME280;22266;52.340;4.962;2022-08-19T08:10:11;101382.16;;;20.43;75.50
36222;BME280;22266;52.340;4.962;2022-08-19T08:12:46;101380.13;;;20.50;75.56
36222;BME280;22266;52.340;4.962;2022-08-19T08:15:33;101384.94;;;20.60;75.22
36222;BME280;22266;52.340;4.962;2022-08-19T08:18:07;101377.41;;;20.67;74.96
36222;BME280;22266;52.340;4.962;2022-08-19T08:20:34;101385.09;;;20.70;74.78
36222;BME280;22266;52.340;4.962;2022-08-19T08:23:01;101392.06;;;20.78;74.67
36222;BME280;22266;52.340;4.962;2022-08-19T08:25:46;101388.25;;;20.79;74.57
36222;BME280;22266;52.340;4.962;2022-08-19T08:28:15;101388.25;;;20.79;74.71
36222;BME280;22266;52.340;4.962;2022-08-19T08:30:43;101388.34;;;20.84;74.62
36222;BME280;22266;52.340;4.962;2022-08-19T08:33:11;101390.41;;;20.93;74.37
36222;BME280;22266;52.340;4.962;2022-08-19T08:35:40;101396.78;;;20.99;74.17
36222;BME280;22266;52.340;4.962;2022-08-19T08:38:11;101393.31;;;21.04;73.81
36222;BME280;22266;52.340;4.962;2022-08-19T08:40:48;101390.47;;;21.15;73.70
36222;BME280;22266;52.340;4.962;2022-08-19T08:46:13;101395.94;;;21.32;73.03
36222;BME280;22266;52.340;4.962;2022-08-19T08:51:51;101387.94;;;21.31;72.33
36222;BME280;22266;52.340;4.962;2022-08-19T08:54:30;101399.25;;;21.34;72.43
36222;BME280;22266;52.340;4.962;2022-08-19T08:57:03;101400.16;;;21.40;72.13
36222;BME280;22266;52.340;4.962;2022-08-19T08:59:34;101397.47;;;21.45;71.94
36222;BME280;22266;52.340;4.962;2022-08-19T09:02:02;101399.13;;;21.46;71.80
36222;BME280;22266;52.340;4.962;2022-08-19T09:04:29;101380.16;;;21.39;71.80
36222;BME280;22266;52.340;4.962;2022-08-19T09:09:47;101398.13;;;21.52;71.41
36222;BME280;22266;52.340;4.962;2022-08-19T09:12:23;101393.97;;;21.50;71.47
36222;BME280;22266;52.340;4.962;2022-08-19T09:15:00;101394.81;;;21.50;71.30
36222;BME280;22266;52.340;4.962;2022-08-19T09:17:29;101394.03;;;21.55;71.23
36222;BME280;22266;52.340;4.962;2022-08-19T09:20:06;101389.97;;;21.57;71.14
36222;BME280;22266;52.340;4.962;2022-08-19T09:22:37;101393.41;;;21.69;71.22
36222;BME280;22266;52.340;4.962;2022-08-19T09:25:04;101396.34;;;21.85;70.92
36222;BME280;22266;52.340;4.962;2022-08-19T09:27:31;101393.97;;;21.93;70.58
36222;BME280;22266;52.340;4.962;2022-08-19T09:30:17;101404.75;;;22.00;69.89
36222;BME280;22266;52.340;4.962;2022-08-19T09:32:46;101403.44;;;22.08;69.99
36222;BME280;22266;52.340;4.962;2022-08-19T09:35:20;101416.59;;;22.06;69.65
36222;BME280;22266;52.340;4.962;2022-08-19T09:37:49;101407.03;;;22.08;69.00
36222;BME280;22266;52.340;4.962;2022-08-19T09:40:20;101409.34;;;22.16;69.05
36222;BME280;22266;52.340;4.962;2022-08-19T09:42:50;101402.50;;;22.19;68.59
36222;BME280;22266;52.340;4.962;2022-08-19T09:45:20;101409.03;;;22.13;68.47
36222;BME280;22266;52.340;4.962;2022-08-19T09:47:50;101409.78;;;22.08;68.33
36222;BME280;22266;52.340;4.962;2022-08-19T09:50:21;101403.16;;;22.04;68.07
36222;BME280;22266;52.340;4.962;2022-08-19T09:52:48;101406.72;;;22.05;67.94
36222;BME280;22266;52.340;4.962;2022-08-19T09:55:24;101417.16;;;22.08;67.95
36222;BME280;22266;52.340;4.962;2022-08-19T09:58:01;101416.66;;;22.11;67.59
36222;BME280;22266;52.340;4.962;2022-08-19T10:00:28;101415.34;;;22.13;67.34
36222;BME280;22266;52.340;4.962;2022-08-19T10:02:55;101417.31;;;22.18;66.64
36222;BME280;22266;52.340;4.962;2022-08-19T10:05:22;101419.78;;;22.19;66.79
36222;BME280;22266;52.340;4.962;2022-08-19T10:08:08;101418.13;;;22.18;66.44
36222;BME280;22266;52.340;4.962;2022-08-19T10:10:42;101413.44;;;22.14;66.58
36222;BME280;22266;52.340;4.962;2022-08-19T10:13:14;101423.50;;;22.08;67.11
36222;BME280;22266;52.340;4.962;2022-08-19T10:15:42;101421.00;;;22.07;67.33
36222;BME280;22266;52.340;4.962;2022-08-19T10:18:12;101418.00;;;22.08;67.67
36222;BME280;22266;52.340;4.962;2022-08-19T10:20:38;101413.03;;;22.05;67.51
36222;BME280;22266;52.340;4.962;2022-08-19T10:23:05;101408.06;;;22.02;67.37
36222;BME280;22266;52.340;4.962;2022-08-19T10:25:33;101410.53;;;22.04;67.55
36222;BME280;22266;52.340;4.962;2022-08-19T10:28:00;101407.53;;;22.05;67.73
36222;BME280;22266;52.340;4.962;2022-08-19T10:30:27;101414.19;;;22.09;67.66
36222;BME280;22266;52.340;4.962;2022-08-19T10:32:53;101410.41;;;22.15;67.49
36222;BME280;22266;52.340;4.962;2022-08-19T10:35:20;101409.34;;;22.16;67.69
36222;BME280;22266;52.340;4.962;2022-08-19T10:37:48;101413.44;;;22.14;67.07
36222;BME280;22266;52.340;4.962;2022-08-19T10:40:22;101412.59;;;22.13;67.02
36222;BME280;22266;52.340;4.962;2022-08-19T10:42:49;101419.03;;;22.24;67.09
36222;BME280;22266;52.340;4.962;2022-08-19T10:45:15;101413.91;;;22.33;66.81
36222;BME280;22266;52.340;4.962;2022-08-19T10:47:43;101410.63;;;22.36;66.33
36222;BME280;22266;52.340;4.962;2022-08-19T10:50:09;101415.66;;;22.44;66.38
36222;BME280;22266;52.340;4.962;2022-08-19T10:52:55;101415.97;;;22.48;66.44
36222;BME280;22266;52.340;4.962;2022-08-19T10:55:23;101416.84;;;22.53;66.39
36222;BME280;22266;52.340;4.962;2022-08-19T10:58:20;101419.06;;;22.56;66.30
36222;BME280;22266;52.340;4.962;2022-08-19T11:00:54;101419.84;;;22.52;66.25
36222;BME280;22266;52.340;4.962;2022-08-19T11:03:21;101412.97;;;22.49;66.46
36222;BME280;22266;52.340;4.962;2022-08-19T11:06:17;101418.16;;;22.45;66.25
36222;BME280;22266;52.340;4.962;2022-08-19T11:08:45;101412.66;;;22.45;66.50
36222;BME280;22266;52.340;4.962;2022-08-19T11:11:12;101416.22;;;22.46;66.42
36222;BME280;22266;52.340;4.962;2022-08-19T11:13:40;101413.75;;;22.44;66.44
36222;BME280;22266;52.340;4.962;2022-08-19T11:16:11;101416.78;;;22.48;66.59
36222;BME280;22266;52.340;4.962;2022-08-19T11:18:42;101416.03;;;22.53;66.66
36222;BME280;22266;52.340;4.962;2022-08-19T11:21:16;101420.72;;;22.57;66.78
36222;BME280;22266;52.340;4.962;2022-08-19T11:23:44;101416.38;;;22.61;66.34
36222;BME280;22266;52.340;4.962;2022-08-19T11:26:12;101413.97;;;22.70;66.34
36222;BME280;22266;52.340;4.962;2022-08-19T11:28:39;101415.34;;;22.73;66.24
36222;BME280;22266;52.340;4.962;2022-08-19T11:31:15;101412.69;;;22.78;66.08
36222;BME280;22266;52.340;4.962;2022-08-19T11:33:42;101412.72;;;22.83;65.76
36222;BME280;22266;52.340;4.962;2022-08-19T11:36:13;101411.91;;;22.87;65.58
36222;BME280;22266;52.340;4.962;2022-08-19T11:38:41;101413.66;;;22.93;65.50
36222;BME280;22266;52.340;4.962;2022-08-19T11:41:08;101404.84;;;22.91;65.07
36222;BME280;22266;52.340;4.962;2022-08-19T11:43:35;101408.16;;;22.93;65.19
36222;BME280;22266;52.340;4.962;2022-08-19T11:46:08;101409.81;;;22.94;65.21
36222;BME280;22266;52.340;4.962;2022-08-19T11:48:36;101414.94;;;22.86;65.13
36222;BME280;22266;52.340;4.962;2022-08-19T11:51:05;101411.63;;;22.84;64.86
36222;BME280;22266;52.340;4.962;2022-08-19T11:53:33;101401.72;;;22.83;64.87
36222;BME280;22266;52.340;4.962;2022-08-19T11:56:00;101403.69;;;22.87;64.77
36222;BME280;22266;52.340;4.962;2022-08-19T11:58:27;101402.34;;;22.90;64.70
36222;BME280;22266;52.340;4.962;2022-08-19T12:00:53;101407.84;;;22.90;64.49
36222;BME280;22266;52.340;4.962;2022-08-19T12:03:20;101407.84;;;22.90;64.15
36222;BME280;22266;52.340;4.962;2022-08-19T12:05:46;101407.91;;;22.95;64.22
36222;BME280;22266;52.340;4.962;2022-08-19T12:08:13;101412.06;;;23.03;64.54
36222;BME280;22266;52.340;4.962;2022-08-19T12:10:41;101410.94;;;22.99;64.35
36222;BME280;22266;52.340;4.962;2022-08-19T12:13:09;101418.41;;;23.03;64.13
36222;BME280;22266;52.340;4.962;2022-08-19T12:15:37;101412.06;;;23.03;64.00
36222;BME280;22266;52.340;4.962;2022-08-19T12:18:04;101420.59;;;23.01;64.21
36222;BME280;22266;52.340;4.962;2022-08-19T12:20:34;101413.47;;;23.05;64.14
36222;BME280;22266;52.340;4.962;2022-08-19T12:23:02;101412.94;;;23.08;64.02
36222;BME280;22266;52.340;4.962;2022-08-19T12:25:29;101414.59;;;23.09;64.11
36222;BME280;22266;52.340;4.962;2022-08-19T12:27:57;101418.69;;;23.07;63.71
36222;BME280;22266;52.340;4.962;2022-08-19T12:30:24;101415.13;;;23.06;63.50
36222;BME280;22266;52.340;4.962;2022-08-19T12:32:51;101410.16;;;23.03;63.58
36222;BME280;22266;52.340;4.962;2022-08-19T12:35:18;101417.84;;;23.01;63.62
36222;BME280;22266;52.340;4.962;2022-08-19T12:37:48;101407.94;;;23.00;63.81
36222;BME280;22266;52.340;4.962;2022-08-19T12:40:23;101413.38;;;22.95;64.09
36222;BME280;22266;52.340;4.962;2022-08-19T12:42:52;101412.34;;;23.01;64.13
36222;BME280;22266;52.340;4.962;2022-08-19T12:45:18;101412.59;;;23.00;63.73
36222;BME280;22266;52.340;4.962;2022-08-19T12:47:46;101406.31;;;23.04;63.92
36222;BME280;22266;52.340;4.962;2022-08-19T12:50:13;101408.00;;;23.10;64.00
36222;BME280;22266;52.340;4.962;2022-08-19T12:52:39;101412.13;;;23.13;63.68
36222;BME280;22266;52.340;4.962;2022-08-19T12:55:09;101408.88;;;23.21;63.49
36222;BME280;22266;52.340;4.962;2022-08-19T12:57:35;101400.44;;;23.28;63.57
36222;BME280;22266;52.340;4.962;2022-08-19T13:00:08;101403.19;;;23.33;63.28
36222;BME280;22266;52.340;4.962;2022-08-19T13:02:41;101394.44;;;23.36;63.23
36222;BME280;22266;52.340;4.962;2022-08-19T13:05:09;101400.25;;;23.44;63.17
36222;BME280;22266;52.340;4.962;2022-08-19T13:07:38;101397.25;;;23.51;62.74
36222;BME280;22266;52.340;4.962;2022-08-19T13:10:06;101392.06;;;23.60;62.43
36222;BME280;22266;52.340;4.962;2022-08-19T13:12:33;101395.16;;;23.68;62.22
36222;BME280;22266;52.340;4.962;2022-08-19T13:14:59;101392.72;;;23.72;62.07
36222;BME280;22266;52.340;4.962;2022-08-19T13:17:26;101380.06;;;23.71;61.74